^^
Your Local Weather - Clay, NY Station Historical Data
Daily Summary for March 24, 2017 Units:  English    Metric   Both
« Previous Day
Next Day »
Daily Weekly Monthly Yearly Custom
  High: Low: Average:
Temperature: 46.0 °F 28.8 °F 37.3 °F
Dew Point: 38.2 °F 9.5 °F 27.5 °F
Humidity: 90% 37% 70%
Wind Speed: 5.0mph 0.0mph 1.1mph
Wind Gust: 9.0mph - -
Wind- - SE
Pressure: 30.38 in 29.92 in -
Precipitation: 0.16 in    
Historical Graphs
 
 
Tabular Data for March 24, 2017
Time Temperature Dew Point Pressure Wind Wind Speed Wind Gust Humidity Rainfall Rate (Hourly) solar
00:04 28.8 °F 10.6 °F 30.38 in East 1.0 mph 2.0 mph 46% 0.00 in 0 W/m2
00:10 28.9 °F 10.2 °F 30.38 in ENE 2.0 mph 2.0 mph 45% 0.00 in 0 W/m2
00:16 29.0 °F 9.8 °F 30.38 in East 1.0 mph 2.0 mph 44% 0.00 in 0 W/m2
00:28 29.2 °F 10.5 °F 30.36 in East 2.0 mph 5.0 mph 45% 0.00 in 0 W/m2
00:34 29.3 °F 10.6 °F 30.36 in East 1.0 mph 2.0 mph 45% 0.00 in 0 W/m2
00:39 29.3 °F 10.1 °F 30.36 in East 2.0 mph 2.0 mph 44% 0.00 in 0 W/m2
00:46 29.6 °F 9.8 °F 30.36 in East 2.0 mph 2.0 mph 43% 0.00 in 0 W/m2
00:52 29.8 °F 9.5 °F 30.37 in East 1.0 mph 2.0 mph 42% 0.00 in 0 W/m2
00:58 29.8 °F 11.5 °F 30.36 in East 1.0 mph 3.0 mph 46% 0.00 in 0 W/m2
01:04 29.8 °F 11.0 °F 30.36 in ENE 2.0 mph 3.0 mph 45% 0.00 in 0 W/m2
01:10 30.0 °F 9.6 °F 30.36 in ENE 3.0 mph 4.0 mph 42% 0.00 in 0 W/m2
01:16 30.3 °F 9.9 °F 30.36 in East 3.0 mph 4.0 mph 42% 0.00 in 0 W/m2
01:22 30.3 °F 9.9 °F 30.36 in SE 2.0 mph 2.0 mph 42% 0.00 in 0 W/m2
01:28 30.4 °F 10.5 °F 30.37 in ENE 2.0 mph 2.0 mph 43% 0.00 in 0 W/m2
01:34 30.3 °F 10.4 °F 30.37 in ENE 1.0 mph 1.0 mph 43% 0.00 in 0 W/m2
01:40 30.2 °F 11.9 °F 30.36 in ENE 1.0 mph 1.0 mph 46% 0.00 in 0 W/m2
01:46 30.0 °F 10.7 °F 30.34 in ENE 2.0 mph 3.0 mph 44% 0.00 in 0 W/m2
01:52 30.0 °F 11.7 °F 30.33 in East 2.0 mph 2.0 mph 46% 0.00 in 0 W/m2
01:58 29.9 °F 13.0 °F 30.33 in East 2.0 mph 3.0 mph 49% 0.00 in 0 W/m2
02:04 30.0 °F 13.1 °F 30.33 in SE 1.0 mph 3.0 mph 49% 0.00 in 0 W/m2
02:10 30.3 °F 12.0 °F 30.33 in ENE 1.0 mph 1.0 mph 46% 0.00 in 0 W/m2
02:16 30.6 °F 13.2 °F 30.33 in Calm   1.0 mph 48% 0.00 in 0 W/m2
02:22 30.5 °F 13.1 °F 30.32 in East 1.0 mph 3.0 mph 48% 0.00 in 0 W/m2
02:28 30.4 °F 14.9 °F 30.31 in East 1.0 mph 3.0 mph 52% 0.00 in 0 W/m2
02:34 30.5 °F 13.6 °F 30.31 in East 1.0 mph 1.0 mph 49% 0.00 in 0 W/m2
02:40 30.7 °F 13.8 °F 30.31 in East 1.0 mph 1.0 mph 49% 0.00 in 0 W/m2
02:46 31.2 °F 13.3 °F 30.32 in East 1.0 mph 3.0 mph 47% 0.00 in 0 W/m2
02:52 31.1 °F 13.2 °F 30.33 in East 1.0 mph 1.0 mph 47% 0.00 in 0 W/m2
02:58 31.0 °F 16.3 °F 30.32 in East 1.0 mph 1.0 mph 54% 0.00 in 0 W/m2
03:04 30.9 °F 17.0 °F 30.32 in ENE 1.0 mph 3.0 mph 56% 0.00 in 0 W/m2
03:10 30.7 °F 16.4 °F 30.31 in ENE 1.0 mph 2.0 mph 55% 0.00 in 0 W/m2
03:16 30.7 °F 16.4 °F 30.31 in ENE 2.0 mph 2.0 mph 55% 0.00 in 0 W/m2
03:22 30.7 °F 16.0 °F 30.30 in East 2.0 mph 2.0 mph 54% 0.00 in 0 W/m2
03:28 30.6 °F 16.3 °F 30.29 in East 1.0 mph 2.0 mph 55% 0.00 in 0 W/m2
03:34 30.5 °F 16.7 °F 30.28 in Calm   1.0 mph 56% 0.00 in 0 W/m2
03:40 30.7 °F 16.4 °F 30.28 in ESE 1.0 mph 2.0 mph 55% 0.00 in 0 W/m2
03:46 30.9 °F 16.6 °F 30.28 in East 1.0 mph 2.0 mph 55% 0.00 in 0 W/m2
03:52 31.0 °F 16.7 °F 30.27 in East 1.0 mph 2.0 mph 55% 0.00 in 0 W/m2
03:58 30.8 °F 17.3 °F 30.27 in East 1.0 mph 2.0 mph 57% 0.00 in 0 W/m2
04:04 30.9 °F 16.6 °F 30.27 in East 1.0 mph 2.0 mph 55% 0.00 in 0 W/m2
04:10 30.8 °F 18.9 °F 30.26 in East 1.0 mph 2.0 mph 61% 0.00 in 0 W/m2
04:16 30.7 °F 17.7 °F 30.26 in East 1.0 mph 2.0 mph 58% 0.00 in 0 W/m2
04:22 31.5 °F 16.7 °F 30.26 in East 1.0 mph 2.0 mph 54% 0.00 in 0 W/m2
04:28 32.0 °F 15.9 °F 30.26 in East 1.0 mph 2.0 mph 51% 0.00 in 0 W/m2
04:34 31.9 °F 18.0 °F 30.26 in East 1.0 mph 1.0 mph 56% 0.00 in 0 W/m2
04:39 32.0 °F 17.2 °F 30.26 in SE 1.0 mph 1.0 mph 54% 0.00 in 0 W/m2
04:46 32.2 °F 18.2 °F 30.26 in SE 1.0 mph 1.0 mph 56% 0.00 in 0 W/m2
04:52 33.7 °F 14.1 °F 30.25 in South 2.0 mph 3.0 mph 44% 0.00 in 0 W/m2
04:58 34.7 °F 13.9 °F 30.25 in SE 3.0 mph 4.0 mph 42% 0.00 in 0 W/m2
05:04 35.8 °F 14.4 °F 30.23 in SE 4.0 mph 4.0 mph 41% 0.00 in 0 W/m2
05:10 35.8 °F 13.8 °F 30.23 in South 3.0 mph 6.0 mph 40% 0.00 in 0 W/m2
05:16 36.1 °F 13.5 °F 30.23 in SE 4.0 mph 6.0 mph 39% 0.00 in 0 W/m2
05:22 35.9 °F 13.3 °F 30.22 in East 3.0 mph 4.0 mph 39% 0.00 in 0 W/m2
05:28 36.1 °F 14.1 °F 30.23 in SSE 3.0 mph 4.0 mph 40% 0.00 in 0 W/m2
05:33 36.3 °F 13.7 °F 30.23 in SSE 3.0 mph 5.0 mph 39% 0.00 in 0 W/m2
05:40 36.6 °F 13.4 °F 30.23 in SE 4.0 mph 4.0 mph 38% 0.00 in 0 W/m2
05:46 36.7 °F 14.6 °F 30.22 in SSE 4.0 mph 5.0 mph 40% 0.00 in 0 W/m2
05:52 36.7 °F 13.4 °F 30.20 in SE 4.0 mph 4.0 mph 38% 0.00 in 0 W/m2
05:58 36.8 °F 13.5 °F 30.20 in ESE 4.0 mph 5.0 mph 38% 0.00 in 0 W/m2
06:04 37.1 °F 13.2 °F 30.22 in South 4.0 mph 6.0 mph 37% 0.00 in 0 W/m2
06:10 37.3 °F 13.4 °F 30.22 in SSE 4.0 mph 4.0 mph 37% 0.00 in 0 W/m2
06:16 37.1 °F 13.8 °F 30.22 in SE 4.0 mph 4.0 mph 38% 0.00 in 0 W/m2
06:22 37.1 °F 14.4 °F 30.22 in SE 3.0 mph 4.0 mph 39% 0.00 in 0 W/m2
06:28 37.2 °F 13.9 °F 30.22 in SSE 3.0 mph 5.0 mph 38% 0.00 in 0 W/m2
06:34 37.2 °F 13.9 °F 30.22 in SSE 2.0 mph 2.0 mph 38% 0.00 in 0 W/m2
06:40 37.0 °F 15.5 °F 30.22 in Calm   2.0 mph 41% 0.00 in 0 W/m2
06:46 35.9 °F 17.1 °F 30.22 in Calm   2.0 mph 46% 0.00 in 0 W/m2
06:52 35.3 °F 17.1 °F 30.21 in Calm     47% 0.00 in 0 W/m2
06:58 35.0 °F 17.7 °F 30.21 in Calm     49% 0.00 in 0 W/m2
07:04 34.7 °F 17.9 °F 30.22 in Calm     50% 0.00 in 0 W/m2
07:10 34.2 °F 18.4 °F 30.21 in Calm   1.0 mph 52% 0.00 in 0 W/m2
07:16 33.7 °F 18.4 °F 30.21 in Calm   1.0 mph 53% 0.00 in 0 W/m2
07:22 33.6 °F 17.8 °F 30.20 in Calm     52% 0.00 in 0 W/m2
07:28 33.5 °F 18.2 °F 30.20 in SSE 1.0 mph 3.0 mph 53% 0.00 in 7 W/m2
07:34 34.3 °F 17.1 °F 30.19 in SE 2.0 mph 4.0 mph 49% 0.00 in 7 W/m2
07:40 35.7 °F 16.4 °F 30.20 in SSE 2.0 mph 2.0 mph 45% 0.00 in 7 W/m2
07:46 36.5 °F 17.1 °F 30.20 in SSE 2.0 mph 2.0 mph 45% 0.00 in 11 W/m2
07:52 36.6 °F 16.2 °F 30.20 in SSE 1.0 mph 2.0 mph 43% 0.00 in 11 W/m2
08:04 36.6 °F 17.7 °F 30.20 in SSE 1.0 mph 4.0 mph 46% 0.00 in 14 W/m2
08:10 36.8 °F 18.4 °F 30.20 in SE 1.0 mph 2.0 mph 47% 0.00 in 18 W/m2
08:16 36.9 °F 17.5 °F 30.19 in SE 1.0 mph 2.0 mph 45% 0.00 in 28 W/m2
08:22 37.0 °F 18.1 °F 30.19 in SE 1.0 mph 3.0 mph 46% 0.00 in 28 W/m2
08:28 37.3 °F 18.4 °F 30.19 in SE 1.0 mph 3.0 mph 46% 0.00 in 23 W/m2
08:34 38.0 °F 19.5 °F 30.19 in SW 2.0 mph 3.0 mph 47% 0.00 in 21 W/m2
08:40 38.0 °F 21.5 °F 30.19 in South 2.0 mph 4.0 mph 51% 0.00 in 12 W/m2
08:46 38.1 °F 23.8 °F 30.19 in SW 2.0 mph 5.0 mph 56% 0.00 in 11 W/m2
08:52 38.1 °F 27.4 °F 30.18 in West 3.0 mph 4.0 mph 65% 0.00 in 9 W/m2
08:58 37.6 °F 28.3 °F 30.17 in SW 3.0 mph 9.0 mph 69% 0.09 in 12 W/m2
09:04 37.2 °F 29.0 °F 30.18 in South 5.0 mph 5.0 mph 72% 0.08 in 18 W/m2
09:10 36.6 °F 29.1 °F 30.17 in SSW 4.0 mph 4.0 mph 74% 0.07 in 39 W/m2
09:16 36.3 °F 29.1 °F 30.16 in SSE 3.0 mph 4.0 mph 75% 0.05 in 37 W/m2
09:22 35.7 °F 28.9 °F 30.16 in SSE 4.0 mph 7.0 mph 76% 0.05 in 26 W/m2
09:28 35.2 °F 29.0 °F 30.15 in SSE 5.0 mph 7.0 mph 78% 0.05 in 26 W/m2
09:34 34.8 °F 29.0 °F 30.15 in South 4.0 mph 5.0 mph 79% 0.13 in 18 W/m2
09:40 34.5 °F 29.0 °F 30.15 in SE 4.0 mph 4.0 mph 80% 0.19 in 25 W/m2
09:46 34.3 °F 29.4 °F 30.15 in SSE 3.0 mph 4.0 mph 82% 0.17 in 28 W/m2
09:52 34.4 °F 29.5 °F 30.14 in South 4.0 mph 6.0 mph 82% 0.14 in 42 W/m2
09:58 34.5 °F 29.9 °F 30.14 in SE 4.0 mph 6.0 mph 83% 0.08 in 39 W/m2
10:04 34.5 °F 29.9 °F 30.13 in SSE 3.0 mph 8.0 mph 83% 0.05 in 40 W/m2
10:10 34.6 °F 30.3 °F 30.13 in SSE 3.0 mph 3.0 mph 84% 0.04 in 46 W/m2
10:16 34.6 °F 30.6 °F 30.12 in SE 3.0 mph 3.0 mph 85% 0.12 in 47 W/m2
10:22 34.7 °F 30.7 °F 30.13 in SSE 2.0 mph 4.0 mph 85% 0.07 in 39 W/m2
10:28 34.7 °F 30.9 °F 30.12 in SE 2.0 mph 4.0 mph 86% 0.08 in 30 W/m2
10:34 34.8 °F 31.0 °F 30.13 in SSE 2.0 mph 3.0 mph 86% 0.08 in 33 W/m2
10:40 34.8 °F 31.3 °F 30.12 in SSE 1.0 mph 1.0 mph 87% 0.05 in 40 W/m2
10:46 34.9 °F 31.4 °F 30.11 in SSE 1.0 mph 1.0 mph 87% 0.00 in 49 W/m2
10:52 35.1 °F 31.9 °F 30.10 in ESE 1.0 mph 2.0 mph 88% 0.00 in 53 W/m2
10:58 35.4 °F 32.2 °F 30.10 in ESE 1.0 mph 3.0 mph 88% 0.00 in 60 W/m2
11:04 35.6 °F 32.4 °F 30.10 in ESE 1.0 mph 2.0 mph 88% 0.00 in 58 W/m2
11:10 35.8 °F 32.6 °F 30.10 in Calm     88% 0.00 in 72 W/m2
11:16 35.8 °F 32.6 °F 30.10 in Calm     88% 0.00 in 63 W/m2
11:22 35.9 °F 33.0 °F 30.10 in Calm   1.0 mph 89% 0.00 in 54 W/m2
11:28 35.8 °F 32.9 °F 30.09 in Calm   2.0 mph 89% 0.00 in 88 W/m2
11:34 36.4 °F 33.7 °F 30.09 in ESE 1.0 mph 1.0 mph 90% 0.00 in 125 W/m2
11:40 37.1 °F 34.4 °F 30.08 in ESE 1.0 mph 1.0 mph 90% 0.00 in 118 W/m2
11:46 37.5 °F 34.8 °F 30.08 in Calm   2.0 mph 90% 0.00 in 76 W/m2
11:52 37.7 °F 35.0 °F 30.08 in Calm     90% 0.00 in 65 W/m2
11:58 37.7 °F 35.0 °F 30.07 in Calm     90% 0.00 in 72 W/m2
12:04 37.8 °F 35.1 °F 30.07 in ESE 1.0 mph 2.0 mph 90% 0.00 in 95 W/m2
12:10 38.2 °F 35.5 °F 30.07 in Calm     90% 0.00 in 144 W/m2
12:15 38.4 °F 35.7 °F 30.05 in Calm     90% 0.00 in 174 W/m2
12:22 38.9 °F 36.2 °F 30.05 in Calm     90% 0.00 in 169 W/m2
12:28 39.4 °F 36.4 °F 30.04 in SE 1.0 mph 1.0 mph 89% 0.00 in 204 W/m2
12:34 39.7 °F 36.7 °F 30.04 in SE 1.0 mph 1.0 mph 89% 0.00 in 62 W/m2
12:40 39.8 °F 36.5 °F 30.04 in Calm     88% 0.00 in 60 W/m2
12:46 39.8 °F 36.2 °F 30.04 in Calm     87% 0.00 in 76 W/m2
12:52 39.7 °F 36.1 °F 30.04 in Calm     87% 0.00 in 69 W/m2
12:58 39.8 °F 36.2 °F 30.03 in Calm     87% 0.00 in 76 W/m2
13:04 39.5 °F 36.0 °F 30.02 in Calm   1.0 mph 87% 0.00 in 76 W/m2
13:10 39.7 °F 36.1 °F 30.03 in East 1.0 mph 2.0 mph 87% 0.00 in 72 W/m2
13:16 39.9 °F 36.3 °F 30.03 in East 1.0 mph 2.0 mph 87% 0.00 in 67 W/m2
13:22 39.8 °F 36.2 °F 30.02 in Calm   2.0 mph 87% 0.00 in 62 W/m2
13:28 39.5 °F 36.0 °F 30.02 in Calm   2.0 mph 87% 0.00 in 95 W/m2
13:34 39.7 °F 36.1 °F 30.01 in Calm   1.0 mph 87% 0.00 in 123 W/m2
13:40 40.2 °F 36.6 °F 30.01 in Calm     87% 0.00 in 176 W/m2
13:52 41.9 °F 37.4 °F 30.01 in SE 1.0 mph 1.0 mph 84% 0.00 in 193 W/m2
14:00 42.5 °F 37.7 °F 30.00 in Calm   2.0 mph 83% 0.00 in 178 W/m2
14:06 42.9 °F 37.8 °F 30.00 in SE 1.0 mph 2.0 mph 82% 0.00 in 193 W/m2
14:12 43.1 °F 37.7 °F 30.00 in SE 1.0 mph 1.0 mph 81% 0.00 in 176 W/m2
14:18 43.3 °F 37.5 °F 30.00 in SE 1.0 mph 2.0 mph 80% 0.00 in 105 W/m2
14:24 43.3 °F 37.5 °F 29.99 in SE 1.0 mph 2.0 mph 80% 0.00 in 123 W/m2
14:30 43.1 °F 37.0 °F 29.99 in Calm     79% 0.00 in 105 W/m2
14:36 43.2 °F 37.1 °F 29.99 in SE 1.0 mph 1.0 mph 79% 0.00 in 104 W/m2
14:42 43.3 °F 36.9 °F 29.98 in Calm     78% 0.00 in 88 W/m2
14:48 43.1 °F 36.7 °F 29.98 in SE 1.0 mph 1.0 mph 78% 0.00 in 86 W/m2
14:54 43.3 °F 36.9 °F 29.98 in SE 1.0 mph 1.0 mph 78% 0.00 in 114 W/m2
15:00 43.5 °F 37.1 °F 29.98 in Calm     78% 0.00 in 81 W/m2
15:06 43.4 °F 37.3 °F 29.97 in Calm     79% 0.00 in 81 W/m2
15:12 43.4 °F 37.0 °F 29.96 in Calm   2.0 mph 78% 0.00 in 113 W/m2
15:18 43.7 °F 37.3 °F 29.96 in SE 1.0 mph 2.0 mph 78% 0.00 in 246 W/m2
15:24 44.1 °F 37.7 °F 29.96 in SE 1.0 mph 1.0 mph 78% 0.00 in 202 W/m2
15:30 44.7 °F 37.6 °F 29.96 in ESE 1.0 mph 2.0 mph 76% 0.00 in 223 W/m2
15:36 45.1 °F 37.6 °F 29.95 in SSE 2.0 mph 4.0 mph 75% 0.00 in 179 W/m2
15:42 45.2 °F 37.4 °F 29.95 in SE 2.0 mph 3.0 mph 74% 0.00 in 142 W/m2
15:48 45.4 °F 37.6 °F 29.95 in SE 2.0 mph 3.0 mph 74% 0.00 in 153 W/m2
15:54 45.5 °F 37.3 °F 29.95 in SE 1.0 mph 2.0 mph 73% 0.00 in 116 W/m2
16:00 45.5 °F 37.3 °F 29.94 in SE 1.0 mph 1.0 mph 73% 0.00 in 113 W/m2
16:06 45.6 °F 37.4 °F 29.94 in SE 1.0 mph 2.0 mph 73% 0.00 in 65 W/m2
16:12 45.5 °F 37.3 °F 29.94 in Calm     73% 0.00 in 121 W/m2
16:18 45.3 °F 37.5 °F 29.94 in SSE 1.0 mph 3.0 mph 74% 0.00 in 104 W/m2
16:24 45.6 °F 37.4 °F 29.94 in SSE 1.0 mph 2.0 mph 73% 0.00 in 84 W/m2
16:30 45.6 °F 37.8 °F 29.94 in Calm     74% 0.00 in 84 W/m2
16:36 45.6 °F 37.8 °F 29.94 in Calm     74% 0.00 in 97 W/m2
16:42 45.2 °F 37.7 °F 29.94 in Calm     75% 0.00 in 72 W/m2
16:48 45.0 °F 38.2 °F 29.93 in Calm   2.0 mph 77% 0.00 in 67 W/m2
16:54 45.0 °F 37.9 °F 29.93 in Calm   1.0 mph 76% 0.00 in 54 W/m2
17:00 45.2 °F 37.7 °F 29.93 in SSE 1.0 mph 1.0 mph 75% 0.00 in 42 W/m2
17:06 45.3 °F 37.8 °F 29.93 in SSE 1.0 mph 2.0 mph 75% 0.00 in 53 W/m2
17:12 45.6 °F 38.1 °F 29.93 in SE 1.0 mph 2.0 mph 75% 0.00 in 56 W/m2
17:18 45.6 °F 37.8 °F 29.92 in SE 1.0 mph 2.0 mph 74% 0.00 in 37 W/m2
17:24 45.6 °F 37.8 °F 29.92 in Calm   3.0 mph 74% 0.00 in 42 W/m2
17:30 45.8 °F 38.0 °F 29.92 in SE 1.0 mph 1.0 mph 74% 0.00 in 47 W/m2
17:36 46.0 °F 37.8 °F 29.92 in SE 1.0 mph 1.0 mph 73% 0.00 in 32 W/m2
17:42 45.7 °F 37.9 °F 29.92 in Calm     74% 0.00 in 35 W/m2
17:48 45.1 °F 37.3 °F 29.92 in Calm     74% 0.00 in 53 W/m2
17:54 44.3 °F 37.2 °F 29.92 in Calm     76% 0.00 in 30 W/m2
18:00 43.1 °F 36.0 °F 29.93 in NNW 1.0 mph 1.0 mph 76% 0.00 in 21 W/m2
18:06 41.8 °F 35.8 °F 29.93 in NNW 2.0 mph 2.0 mph 79% 0.00 in 12 W/m2
18:12 41.5 °F 35.8 °F 29.93 in Calm   1.0 mph 80% 0.00 in 7 W/m2
18:18 40.9 °F 35.2 °F 29.94 in Calm   2.0 mph 80% 0.00 in 7 W/m2
18:24 40.2 °F 34.8 °F 29.93 in NNW 1.0 mph 2.0 mph 81% 0.00 in 7 W/m2
18:30 39.8 °F 34.8 °F 29.94 in NNW 1.0 mph 1.0 mph 82% 0.00 in 9 W/m2
18:36 39.4 °F 34.4 °F 29.94 in NNW 1.0 mph 1.0 mph 82% 0.00 in 5 W/m2
18:42 39.4 °F 35.0 °F 29.94 in Calm     84% 0.00 in 0 W/m2
18:48 39.2 °F 34.5 °F 29.94 in Calm     83% 0.00 in 0 W/m2
18:54 39.0 °F 34.3 °F 29.94 in Calm   2.0 mph 83% 0.00 in 0 W/m2
19:00 38.5 °F 33.8 °F 29.95 in Calm   1.0 mph 83% 0.00 in 0 W/m2
19:06 38.5 °F 34.1 °F 29.95 in Calm   2.0 mph 84% 0.00 in 0 W/m2
19:12 38.3 °F 34.2 °F 29.96 in Calm     85% 0.00 in 0 W/m2
19:18 38.3 °F 34.2 °F 29.96 in Calm   2.0 mph 85% 0.00 in 0 W/m2
19:24 38.3 °F 34.2 °F 29.97 in NNW 1.0 mph 2.0 mph 85% 0.00 in 0 W/m2
19:30 38.2 °F 34.1 °F 29.97 in NNW 2.0 mph 2.0 mph 85% 0.00 in 0 W/m2
19:36 38.4 °F 34.6 °F 29.97 in NNW 1.0 mph 2.0 mph 86% 0.00 in 0 W/m2
19:42 38.5 °F 34.7 °F 29.97 in NNW 1.0 mph 1.0 mph 86% 0.00 in 0 W/m2
19:48 38.9 °F 35.1 °F 29.97 in Calm   3.0 mph 86% 0.00 in 0 W/m2
19:54 39.0 °F 34.9 °F 29.98 in NNW 1.0 mph 3.0 mph 85% 0.00 in 0 W/m2
20:00 39.3 °F 35.2 °F 29.97 in NNW 1.0 mph 1.0 mph 85% 0.00 in 0 W/m2
20:12 39.5 °F 35.4 °F 29.99 in NNW 1.0 mph 4.0 mph 85% 0.00 in 0 W/m2
20:18 39.9 °F 35.5 °F 29.99 in North 3.0 mph 4.0 mph 84% 0.00 in 0 W/m2
20:24 39.9 °F 35.5 °F 30.00 in North 2.0 mph 3.0 mph 84% 0.00 in 0 W/m2
20:26 40.0 °F 35.6 °F 30.00 in North 1.0 mph 3.0 mph 84% 0.00 in 0 W/m2
20:32 39.9 °F 35.2 °F 30.00 in North 1.0 mph 1.0 mph 83% 0.00 in 0 W/m2
20:38 39.8 °F 35.4 °F 30.00 in Calm   1.0 mph 84% 0.00 in 0 W/m2
20:44 39.7 °F 35.3 °F 30.00 in Calm     84% 0.00 in 0 W/m2
20:50 39.7 °F 35.3 °F 30.01 in Calm     84% 0.00 in 0 W/m2
20:56 39.5 °F 35.1 °F 30.02 in Calm     84% 0.00 in 0 W/m2
21:02 39.3 °F 34.9 °F 30.02 in Calm     84% 0.00 in 0 W/m2
21:08 39.1 °F 35.0 °F 30.02 in Calm     85% 0.00 in 0 W/m2
21:14 39.1 °F 35.0 °F 30.03 in Calm     85% 0.00 in 0 W/m2
21:20 38.8 °F 34.7 °F 30.03 in Calm     85% 0.00 in 0 W/m2
21:26 38.6 °F 34.5 °F 30.03 in Calm     85% 0.00 in 0 W/m2
21:32 38.3 °F 34.2 °F 30.03 in Calm     85% 0.00 in 0 W/m2
21:38 38.2 °F 34.4 °F 30.03 in Calm     86% 0.00 in 0 W/m2
21:44 38.2 °F 34.4 °F 30.03 in Calm     86% 0.00 in 0 W/m2
21:50 38.4 °F 34.9 °F 30.03 in Calm     87% 0.00 in 0 W/m2
21:56 38.3 °F 34.8 °F 30.03 in Calm     87% 0.00 in 0 W/m2
22:02 38.2 °F 34.7 °F 30.03 in Calm     87% 0.00 in 0 W/m2
22:08 38.1 °F 34.6 °F 30.03 in Calm     87% 0.00 in 0 W/m2
22:14 38.0 °F 34.5 °F 30.04 in Calm     87% 0.00 in 0 W/m2
22:20 38.0 °F 34.5 °F 30.05 in Calm     87% 0.00 in 0 W/m2
22:26 37.9 °F 34.4 °F 30.05 in Calm     87% 0.00 in 0 W/m2
22:32 37.8 °F 34.3 °F 30.05 in Calm     87% 0.00 in 0 W/m2
22:38 37.7 °F 34.2 °F 30.06 in Calm     87% 0.00 in 0 W/m2
22:44 37.6 °F 34.1 °F 30.06 in Calm     87% 0.00 in 0 W/m2
22:50 37.4 °F 33.9 °F 30.06 in Calm     87% 0.00 in 0 W/m2
22:56 37.1 °F 33.9 °F 30.05 in Calm   1.0 mph 88% 0.00 in 0 W/m2
23:02 37.8 °F 34.6 °F 30.05 in Calm     88% 0.00 in 0 W/m2
23:08 37.7 °F 34.5 °F 30.05 in Calm     88% 0.00 in 0 W/m2
23:14 37.6 °F 34.4 °F 30.05 in Calm     88% 0.00 in 0 W/m2
23:20 37.5 °F 34.3 °F 30.05 in Calm     88% 0.00 in 0 W/m2
23:26 37.3 °F 34.1 °F 30.05 in Calm     88% 0.00 in 0 W/m2
23:32 37.3 °F 34.1 °F 30.05 in Calm     88% 0.00 in 0 W/m2
23:38 37.3 °F 34.1 °F 30.05 in Calm     88% 0.00 in 0 W/m2
23:44 37.3 °F 34.1 °F 30.05 in Calm     88% 0.00 in 0 W/m2
23:50 37.3 °F 34.1 °F 30.05 in Calm     88% 0.00 in 0 W/m2
23:56 37.1 °F 33.9 °F 30.06 in Calm     88% 0.00 in 0 W/m2
Country Meadow, Clay, NY, USA
Compliments of Weather Underground - 2 mb